Time;durP1;ratioP1;P1;durP2;ratioP2;P2;SDS_P1;SDS_P2;PMS_P1;PMS_P2;Temp;Humidity;BMP_temperature;BMP_pressure;BME280_temperature;BME280_humidity;BME280_pressure;Samples;Min_cycle;Max_cycle;Signal;HPM_P1;HPM_P2
2021/05/12 00:01:23;;;;;;;8.10;7.32;;;9.30;83.10;;;;;;5206574;28;20045;-68
2021/05/12 00:03:54;;;;;;;8.48;7.22;;;9.40;82.20;;;;;;5206852;28;20060;-68
2021/05/12 00:06:26;;;;;;;7.60;7.00;;;9.40;82.00;;;;;;5207812;28;20061;-68
2021/05/12 00:08:58;;;;;;;7.70;7.10;;;9.30;81.20;;;;;;5205986;28;20052;-68
2021/05/12 00:11:30;;;;;;;7.90;7.30;;;9.30;81.90;;;;;;5202687;28;20392;-67
2021/05/12 00:14:02;;;;;;;8.30;7.60;;;9.20;82.30;;;;;;5208297;28;20052;-68
2021/05/12 00:16:34;;;;;;;7.95;7.25;;;9.20;82.30;;;;;;5204095;28;20051;-68
2021/05/12 00:19:07;;;;;;;7.97;7.28;;;9.20;82.00;;;;;;5209480;28;20052;-68
2021/05/12 00:24:10;;;;;;;7.97;7.38;;;9.20;81.50;;;;;;5205861;28;20132;-68
2021/05/12 00:26:44;;;;;;;8.10;7.50;;;9.20;81.20;;;;;;5207960;28;20140;-68
2021/05/12 00:29:17;;;;;;;8.35;7.68;;;9.20;81.70;;;;;;5210217;28;20051;-68
2021/05/12 00:31:49;;;;;;;8.15;7.55;;;9.30;79.90;;;;;;5208568;28;20546;-68
2021/05/12 00:34:21;;;;;;;8.30;7.70;;;9.20;80.40;;;;;;5210513;28;20037;-68
2021/05/12 00:36:53;;;;;;;8.20;7.50;;;9.20;80.20;;;;;;5209588;28;20069;-68
2021/05/12 00:39:25;;;;;;;7.97;7.38;;;9.20;80.90;;;;;;5207476;28;20132;-69
2021/05/12 00:42:00;;;;;;;8.30;7.63;;;9.20;80.60;;;;;;5206018;28;20725;-69
2021/05/12 00:44:32;;;;;;;8.27;7.57;;;9.20;80.60;;;;;;5208567;28;20044;-68
2021/05/12 00:47:05;;;;;;;8.43;7.72;;;9.20;80.40;;;;;;5207922;28;20941;-69
2021/05/12 00:49:37;;;;;;;8.20;7.60;;;9.20;80.70;;;;;;5216557;28;20060;-70
2021/05/12 00:52:09;;;;;;;8.18;7.47;;;9.20;81.00;;;;;;5209737;28;20049;-70
2021/05/12 00:54:41;;;;;;;7.80;7.20;;;9.10;79.90;;;;;;5209014;28;20504;-69
2021/05/12 00:57:13;;;;;;;8.10;7.50;;;9.10;80.10;;;;;;5208485;28;20045;-70
2021/05/12 00:59:46;;;;;;;8.23;7.53;;;9.10;80.60;;;;;;5209614;28;20519;-70
2021/05/12 01:02:18;;;;;;;7.93;7.32;;;9.00;80.60;;;;;;5209412;28;20037;-70
2021/05/12 01:04:50;;;;;;;8.18;7.57;;;9.00;80.80;;;;;;5209468;28;20052;-69
2021/05/12 01:07:22;;;;;;;8.23;7.63;;;9.00;80.70;;;;;;5206145;28;20072;-70
2021/05/12 01:09:54;;;;;;;8.27;7.68;;;9.10;80.50;;;;;;5206446;28;20030;-69
2021/05/12 01:12:26;;;;;;;8.20;7.50;;;9.10;80.20;;;;;;5205826;28;20053;-69
2021/05/12 01:14:58;;;;;;;8.57;7.88;;;9.10;80.70;;;;;;5204665;28;20045;-68
2021/05/12 01:17:30;;;;;;;8.02;7.32;;;9.10;79.90;;;;;;5206884;28;20053;-67
2021/05/12 01:20:03;;;;;;;8.30;7.70;;;8.90;79.60;;;;;;5208527;28;20040;-68
2021/05/12 01:22:35;;;;;;;8.35;7.65;;;8.90;80.10;;;;;;5209982;28;20052;-67
2021/05/12 01:25:09;;;;;;;8.23;7.60;;;8.90;79.50;;;;;;5207486;28;20503;-68
2021/05/12 01:27:40;;;;;;;8.20;7.50;;;8.80;80.50;;;;;;5205529;28;20099;-67
2021/05/12 01:30:13;;;;;;;8.23;7.63;;;8.80;80.60;;;;;;5203286;28;20137;-67
2021/05/12 01:32:46;;;;;;;7.93;7.32;;;8.70;80.40;;;;;;5204132;28;20068;-66
2021/05/12 01:35:17;;;;;;;7.93;7.32;;;8.70;80.50;;;;;;5211307;28;20056;-69
2021/05/12 01:37:49;;;;;;;8.30;7.60;;;8.70;80.80;;;;;;5218350;28;20506;-68
2021/05/12 01:40:22;;;;;;;7.88;7.28;;;8.80;80.90;;;;;;5213055;28;20511;-68
2021/05/12 01:42:53;;;;;;;8.23;7.38;;;8.80;80.70;;;;;;5215872;28;20136;-67
2021/05/12 01:45:25;;;;;;;7.88;7.28;;;8.70;80.60;;;;;;5211410;28;20051;-67
2021/05/12 01:47:57;;;;;;;7.68;7.07;;;8.70;80.50;;;;;;5210841;28;20056;-67
2021/05/12 01:50:30;;;;;;;8.10;7.50;;;8.70;80.40;;;;;;5208565;28;20049;-67
2021/05/12 01:53:02;;;;;;;7.80;7.20;;;8.70;80.60;;;;;;5211809;28;20079;-67
2021/05/12 01:55:34;;;;;;;7.93;7.32;;;8.60;80.60;;;;;;5210282;28;20075;-67
2021/05/12 01:58:06;;;;;;;8.13;7.43;;;8.50;80.50;;;;;;5212054;28;20064;-68
2021/05/12 02:00:44;;;;;;;7.97;7.28;;;8.50;81.60;;;;;;5210633;28;20045;-68
2021/05/12 02:03:20;;;;;;;7.95;7.35;;;8.50;80.70;;;;;;5210716;28;20059;-68
2021/05/12 02:05:53;;;;;;;8.10;7.50;;;8.50;81.20;;;;;;5211448;28;20049;-67
2021/05/12 02:08:27;;;;;;;8.27;7.60;;;8.50;81.10;;;;;;5209881;28;20099;-68
2021/05/12 02:11:02;;;;;;;8.20;7.50;;;8.50;81.10;;;;;;5213081;28;20049;-68
2021/05/12 02:13:35;;;;;;;8.30;7.70;;;8.50;81.10;;;;;;5211006;28;20049;-69
2021/05/12 02:16:07;;;;;;;8.10;7.50;;;8.40;80.90;;;;;;5195719;28;20463;-69
2021/05/12 02:18:39;;;;;;;8.35;7.65;;;8.40;80.90;;;;;;5207320;28;20045;-68
2021/05/12 02:21:11;;;;;;;7.80;7.20;;;8.40;81.30;;;;;;5211439;28;20106;-69
2021/05/12 02:23:43;;;;;;;8.20;7.60;;;8.50;81.20;;;;;;5209500;28;20128;-68
2021/05/12 02:26:15;;;;;;;8.18;7.57;;;8.50;81.30;;;;;;5207472;28;20545;-68
2021/05/12 02:28:47;;;;;;;8.30;7.70;;;8.50;81.40;;;;;;5206899;28;20515;-68
2021/05/12 02:31:19;;;;;;;7.78;7.18;;;8.50;81.70;;;;;;5210480;28;20057;-68
2021/05/12 02:33:50;;;;;;;8.15;7.45;;;8.50;81.50;;;;;;5211033;28;20067;-68
2021/05/12 02:36:22;;;;;;;7.88;7.28;;;8.60;80.80;;;;;;5210210;28;20450;-68
2021/05/12 02:38:55;;;;;;;7.85;7.25;;;8.60;81.00;;;;;;5208900;28;20728;-68
2021/05/12 02:41:27;;;;;;;8.20;7.60;;;8.50;81.30;;;;;;5206487;28;20128;-68
2021/05/12 02:43:59;;;;;;;8.20;7.50;;;8.50;81.90;;;;;;5200621;28;20038;-67
2021/05/12 02:46:30;;;;;;;7.88;7.28;;;8.50;81.80;;;;;;5208355;28;20041;-69
2021/05/12 02:49:03;;;;;;;8.10;7.40;;;8.60;82.00;;;;;;5208282;28;20142;-68
2021/05/12 02:51:35;;;;;;;8.38;7.68;;;8.60;81.60;;;;;;5210005;28;20041;-67
2021/05/12 02:54:07;;;;;;;7.95;7.35;;;8.60;81.90;;;;;;5210515;28;20159;-67
2021/05/12 02:56:39;;;;;;;8.00;7.40;;;8.60;81.80;;;;;;5209538;28;20095;-68
2021/05/12 02:59:11;;;;;;;7.50;6.90;;;8.70;81.80;;;;;;5209730;28;20049;-68
2021/05/12 03:01:43;;;;;;;7.80;7.20;;;8.70;81.50;;;;;;5204606;28;20446;-68
2021/05/12 03:04:15;;;;;;;7.70;7.10;;;8.70;81.70;;;;;;5210660;28;20126;-68
2021/05/12 03:06:47;;;;;;;7.63;6.93;;;8.70;81.80;;;;;;5214586;28;20042;-70
2021/05/12 03:09:19;;;;;;;7.72;7.10;;;8.80;82.40;;;;;;5209356;28;20049;-71
2021/05/12 03:11:51;;;;;;;7.72;7.13;;;8.70;81.90;;;;;;5211628;28;20056;-72
2021/05/12 03:14:23;;;;;;;7.72;7.13;;;8.70;82.00;;;;;;5210153;28;20041;-70
2021/05/12 03:16:56;;;;;;;7.70;7.10;;;8.70;81.70;;;;;;5209652;28;20136;-70
2021/05/12 03:19:28;;;;;;;7.82;7.13;;;8.70;82.00;;;;;;5210171;28;20068;-70
2021/05/12 03:22:00;;;;;;;7.93;7.22;;;8.60;81.90;;;;;;5210739;28;20045;-71
2021/05/12 03:24:32;;;;;;;7.90;7.30;;;8.60;81.80;;;;;;5208995;28;20103;-69
2021/05/12 03:27:05;;;;;;;8.20;7.35;;;8.70;81.50;;;;;;5208699;28;20876;-69
2021/05/12 03:29:37;;;;;;;7.68;7.05;;;8.60;82.10;;;;;;5208768;28;20165;-69
2021/05/12 03:32:09;;;;;;;7.78;7.18;;;8.60;81.90;;;;;;5214039;28;20044;-70
2021/05/12 03:34:41;;;;;;;8.00;7.15;;;8.70;82.50;;;;;;5208969;28;20937;-69
2021/05/12 03:37:13;;;;;;;8.70;8.00;;;8.70;81.30;;;;;;5208089;28;20671;-69
2021/05/12 03:39:45;;;;;;;8.18;7.47;;;8.70;81.40;;;;;;5208956;28;20040;-70
2021/05/12 03:42:16;;;;;;;7.82;7.22;;;8.80;81.30;;;;;;5209772;28;20139;-70
2021/05/12 03:44:48;;;;;;;7.70;7.10;;;8.70;81.60;;;;;;5211596;28;20218;-70
2021/05/12 03:47:20;;;;;;;7.93;7.32;;;8.70;81.70;;;;;;5207697;28;20075;-70
2021/05/12 03:49:52;;;;;;;7.90;7.30;;;8.70;81.80;;;;;;5207402;28;20071;-72
2021/05/12 03:52:24;;;;;;;8.15;7.43;;;8.70;81.40;;;;;;5206132;28;20053;-69
2021/05/12 03:54:56;;;;;;;7.47;6.88;;;8.70;81.20;;;;;;5208208;28;20049;-70
2021/05/12 03:57:28;;;;;;;7.95;7.35;;;8.80;81.00;;;;;;5207196;28;20053;-69
2021/05/12 04:00:00;;;;;;;7.53;6.93;;;8.70;80.50;;;;;;5213730;28;20053;-69
2021/05/12 04:02:32;;;;;;;7.72;7.13;;;8.70;80.40;;;;;;5207877;28;20047;-69
2021/05/12 04:05:05;;;;;;;7.60;7.00;;;8.70;80.80;;;;;;5208644;28;20745;-69
2021/05/12 04:07:37;;;;;;;7.70;7.10;;;8.60;81.20;;;;;;5208313;28;20045;-69
2021/05/12 04:10:10;;;;;;;8.20;7.50;;;8.60;81.10;;;;;;5189153;28;20124;-69
2021/05/12 04:12:43;;;;;;;8.10;7.50;;;8.60;81.10;;;;;;5207075;28;20077;-70
2021/05/12 04:15:15;;;;;;;8.30;7.60;;;8.60;81.10;;;;;;5224316;28;20487;-71
2021/05/12 04:17:47;;;;;;;8.18;7.57;;;8.60;81.70;;;;;;5205477;28;20034;-68
2021/05/12 04:20:21;;;;;;;8.43;7.72;;;8.50;81.30;;;;;;5210787;28;20053;-70
2021/05/12 04:22:53;;;;;;;7.80;7.20;;;8.60;82.00;;;;;;5205728;28;20515;-69
2021/05/12 04:25:25;;;;;;;7.50;6.90;;;8.60;81.90;;;;;;5206520;28;20415;-69
2021/05/12 04:27:57;;;;;;;7.25;6.65;;;8.60;81.90;;;;;;5205507;28;20972;-69
2021/05/12 04:30:31;;;;;;;7.60;7.00;;;8.60;81.40;;;;;;5206146;28;20041;-69
2021/05/12 04:33:04;;;;;;;7.20;6.50;;;8.70;81.80;;;;;;5203817;28;20037;-69
2021/05/12 04:35:36;;;;;;;7.20;6.60;;;8.70;81.60;;;;;;5207870;28;20415;-69
2021/05/12 04:38:08;;;;;;;7.40;6.80;;;8.70;82.30;;;;;;5203752;28;20103;-69
2021/05/12 04:40:39;;;;;;;7.60;7.00;;;8.70;82.30;;;;;;5203984;28;20132;-69
2021/05/12 04:43:12;;;;;;;7.70;7.10;;;8.70;82.20;;;;;;5204692;28;20041;-70
2021/05/12 04:45:44;;;;;;;7.03;6.43;;;8.70;82.90;;;;;;5219463;28;20049;-70
2021/05/12 04:48:15;;;;;;;7.10;6.50;;;8.70;82.30;;;;;;5205599;28;20537;-70
2021/05/12 04:50:47;;;;;;;7.07;6.47;;;8.70;82.00;;;;;;5202836;28;20045;-69
2021/05/12 04:53:19;;;;;;;6.90;6.30;;;8.70;82.40;;;;;;5204171;28;20049;-69
2021/05/12 04:55:51;;;;;;;7.35;6.70;;;8.70;82.20;;;;;;5206843;28;20090;-69
2021/05/12 04:58:23;;;;;;;6.85;6.25;;;8.70;82.70;;;;;;5207879;28;20049;-69
2021/05/12 05:00:55;;;;;;;6.78;6.18;;;8.70;82.20;;;;;;5209924;28;20045;-69
2021/05/12 05:03:27;;;;;;;6.50;5.90;;;8.70;82.30;;;;;;5211247;28;20049;-68
2021/05/12 05:05:59;;;;;;;6.88;6.28;;;8.70;82.40;;;;;;5207413;28;20084;-70
2021/05/12 05:08:31;;;;;;;7.32;6.72;;;8.80;82.50;;;;;;5206951;28;20045;-69
2021/05/12 05:11:03;;;;;;;6.40;5.90;;;8.80;82.30;;;;;;5203967;28;20045;-69
2021/05/12 05:13:36;;;;;;;6.70;6.10;;;8.90;82.20;;;;;;5206988;28;20049;-69
2021/05/12 05:16:11;;;;;;;6.35;5.75;;;8.90;81.80;;;;;;5209369;28;20095;-69
2021/05/12 05:18:44;;;;;;;6.85;6.25;;;8.90;82.10;;;;;;5205078;28;20893;-69
2021/05/12 05:21:16;;;;;;;6.80;6.20;;;8.90;82.10;;;;;;5203919;28;20072;-69
2021/05/12 05:23:48;;;;;;;6.57;5.97;;;9.00;82.10;;;;;;5204068;28;20552;-69
2021/05/12 05:26:20;;;;;;;6.63;5.97;;;9.00;82.00;;;;;;5206703;28;20053;-69
2021/05/12 05:28:52;;;;;;;6.90;6.30;;;9.00;81.90;;;;;;5208533;28;20962;-70
2021/05/12 05:31:24;;;;;;;6.80;6.20;;;9.00;82.10;;;;;;5207492;28;20049;-69
2021/05/12 05:34:15;;;;;;;6.57;5.97;;;9.00;81.60;;;;;;5205692;28;20115;-69
2021/05/12 05:37:16;;;;;;;6.70;6.10;;;9.00;81.30;;;;;;5166194;28;20542;-69
2021/05/12 05:40:07;;;;;;;;;;;9.00;81.80;;;;;;5202848;28;20146;-70
2021/05/12 05:42:58;;;;;;;6.90;6.30;;;9.00;82.00;;;;;;5207776;28;20040;-69
2021/05/12 05:45:48;;;;;;;6.60;6.00;;;9.10;81.90;;;;;;5205832;28;20186;-69
2021/05/12 05:48:39;;;;;;;7.00;6.40;;;9.10;82.00;;;;;;5206965;28;20107;-69
2021/05/12 05:51:30;;;;;;;;;;;9.10;81.70;;;;;;5209273;28;20052;-70
2021/05/12 05:54:20;;;;;;;;;;;9.20;81.50;;;;;;5207421;28;20567;-70
2021/05/12 05:57:15;;;;;;;6.60;6.00;;;9.20;81.40;;;;;;5206682;28;20022;-69
2021/05/12 06:00:07;;;;;;;8.10;7.30;;;9.20;81.50;;;;;;5206424;28;20404;-69
2021/05/12 06:02:45;;;;;;;8.13;7.18;;;9.20;80.80;;;;;;5208379;28;20475;-69
2021/05/12 06:05:35;;;;;;;8.30;7.40;;;9.20;81.70;;;;;;5192646;28;20062;-69
2021/05/12 06:08:45;;;;;;;;;;;9.20;81.40;;;;;;5126858;28;20051;-68
2021/05/12 06:11:50;;;;;;;9.77;8.75;;;9.20;81.20;;;;;;5131915;28;20910;-68
2021/05/12 06:14:42;;;;;;;9.93;8.93;;;9.30;80.80;;;;;;5202175;28;20063;-69
2021/05/12 06:17:33;;;;;;;9.13;8.23;;;9.30;81.70;;;;;;5205949;28;20056;-68
2021/05/12 06:20:23;;;;;;;8.95;8.05;;;9.30;80.50;;;;;;5205290;28;20214;-68
2021/05/12 06:23:13;;;;;;;7.82;7.13;;;9.30;81.10;;;;;;5207841;28;20133;-69
2021/05/12 06:26:20;;;;;;;8.35;7.55;;;9.30;81.30;;;;;;5207990;28;20049;-69
2021/05/12 06:29:12;;;;;;;7.82;7.13;;;9.30;80.90;;;;;;5208045;28;20106;-69
2021/05/12 06:32:04;;;;;;;6.78;6.18;;;9.40;81.40;;;;;;5210484;28;20041;-69
2021/05/12 06:34:55;;;;;;;7.15;6.55;;;9.40;81.10;;;;;;5208836;28;20528;-68
2021/05/12 06:37:46;;;;;;;;;;;9.50;80.90;;;;;;5210118;28;20060;-69
2021/05/12 06:40:23;;;;;;;6.93;6.32;;;9.50;79.50;;;;;;5207531;28;20390;-70
2021/05/12 06:42:59;;;;;;;6.90;6.30;;;9.50;79.00;;;;;;5208532;28;20038;-69
2021/05/12 06:45:31;;;;;;;6.38;5.80;;;9.30;76.90;;;;;;5206992;28;20052;-69
2021/05/12 06:48:03;;;;;;;6.60;6.00;;;9.30;77.20;;;;;;5205498;28;20439;-69
2021/05/12 06:50:35;;;;;;;6.50;5.95;;;9.30;79.20;;;;;;5210670;28;20045;-70
2021/05/12 06:53:07;;;;;;;6.30;5.80;;;9.40;77.40;;;;;;5206743;28;20041;-68
2021/05/12 06:55:40;;;;;;;6.43;5.93;;;9.40;76.80;;;;;;5208078;28;20041;-69
2021/05/12 06:58:13;;;;;;;6.40;5.90;;;9.30;75.90;;;;;;5210289;28;20051;-69
2021/05/12 07:00:45;;;;;;;6.30;5.80;;;9.30;77.70;;;;;;5195231;28;20053;-69
2021/05/12 07:03:20;;;;;;;6.30;5.80;;;9.30;77.50;;;;;;5209531;28;20057;-69
2021/05/12 07:05:54;;;;;;;6.30;5.70;;;9.40;79.30;;;;;;5206731;28;20060;-69
2021/05/12 07:08:26;;;;;;;6.30;5.80;;;9.50;77.30;;;;;;5206330;28;20045;-69
2021/05/12 07:10:58;;;;;;;7.00;6.40;;;9.50;79.00;;;;;;5208374;28;20053;-69
2021/05/12 07:13:30;;;;;;;6.95;6.35;;;9.60;78.40;;;;;;5207238;28;20426;-69
2021/05/12 07:16:04;;;;;;;6.75;6.15;;;9.60;77.50;;;;;;5191551;28;20041;-69
2021/05/12 07:18:36;;;;;;;6.60;6.00;;;9.70;78.80;;;;;;5206248;28;20100;-69
2021/05/12 07:21:08;;;;;;;7.18;6.47;;;9.70;77.90;;;;;;5204944;28;20037;-68
2021/05/12 07:23:43;;;;;;;7.13;6.43;;;9.70;78.70;;;;;;5203236;28;20110;-68
2021/05/12 07:26:15;;;;;;;6.90;6.30;;;9.80;78.70;;;;;;5205296;28;20415;-69
2021/05/12 07:28:47;;;;;;;6.90;6.30;;;9.80;78.60;;;;;;5205286;28;20059;-68
2021/05/12 07:31:20;;;;;;;6.90;6.30;;;9.80;77.40;;;;;;5206661;28;20058;-69
2021/05/12 07:33:52;;;;;;;7.18;6.57;;;9.80;78.30;;;;;;5209717;28;20140;-68
2021/05/12 07:36:24;;;;;;;6.40;5.85;;;9.80;77.30;;;;;;5205770;28;20049;-68
2021/05/12 07:38:56;;;;;;;6.82;6.22;;;9.80;76.70;;;;;;5209897;28;20133;-68
2021/05/12 07:41:28;;;;;;;6.65;6.05;;;9.80;77.50;;;;;;5207780;28;20045;-69
2021/05/12 07:44:02;;;;;;;6.32;5.82;;;9.70;77.80;;;;;;5209034;28;20077;-68
2021/05/12 07:46:34;;;;;;;6.40;5.90;;;9.60;76.90;;;;;;5206767;28;20541;-68
2021/05/12 07:49:06;;;;;;;6.38;5.88;;;9.50;75.40;;;;;;5207348;28;20040;-68
2021/05/12 07:51:37;;;;;;;6.07;5.57;;;9.50;76.60;;;;;;5206880;28;20128;-68
2021/05/12 07:54:09;;;;;;;6.20;5.70;;;9.40;75.60;;;;;;5208108;28;20049;-69
2021/05/12 07:56:44;;;;;;;6.10;5.60;;;9.40;76.60;;;;;;5206581;28;20137;-66
2021/05/12 07:59:16;;;;;;;5.93;5.43;;;9.40;76.30;;;;;;5208639;28;21350;-68
2021/05/12 08:01:48;;;;;;;6.05;5.55;;;9.40;76.60;;;;;;5206442;28;20096;-69
2021/05/12 08:04:20;;;;;;;6.40;5.85;;;9.40;77.10;;;;;;5209610;28;20766;-67
2021/05/12 08:06:52;;;;;;;6.18;5.68;;;9.40;76.30;;;;;;5208195;28;20510;-68
2021/05/12 08:09:26;;;;;;;6.20;5.70;;;9.40;76.60;;;;;;5210117;28;20049;-67
2021/05/12 08:11:59;;;;;;;6.10;5.60;;;9.40;76.20;;;;;;5204779;28;20636;-68
2021/05/12 08:14:31;;;;;;;6.38;5.78;;;9.30;76.20;;;;;;5208116;28;20045;-69
2021/05/12 08:17:03;;;;;;;6.10;5.60;;;9.30;76.40;;;;;;5208118;28;20112;-67
2021/05/12 08:19:35;;;;;;;7.15;5.63;;;9.30;76.70;;;;;;5208324;28;20672;-67
2021/05/12 08:22:09;;;;;;;6.18;5.68;;;9.30;76.40;;;;;;5211827;28;20037;-69
2021/05/12 08:24:41;;;;;;;11.02;9.88;;;9.30;77.70;;;;;;5210017;28;20045;-68
2021/05/12 08:27:13;;;;;;;8.25;7.43;;;9.40;77.50;;;;;;5206179;28;20049;-66
2021/05/12 08:29:46;;;;;;;6.70;6.10;;;9.40;78.30;;;;;;5204441;28;20474;-67
2021/05/12 08:32:18;;;;;;;6.35;5.78;;;9.50;78.00;;;;;;5206943;28;20051;-67
2021/05/12 08:34:50;;;;;;;6.30;5.80;;;9.50;78.20;;;;;;5208280;28;20053;-68
2021/05/12 08:37:22;;;;;;;6.75;6.15;;;9.50;77.40;;;;;;5206176;28;20049;-67
2021/05/12 08:39:54;;;;;;;6.68;6.07;;;9.40;76.70;;;;;;5212631;28;20419;-70
2021/05/12 08:42:27;;;;;;;6.60;6.00;;;9.40;76.20;;;;;;5204232;28;20403;-66
2021/05/12 08:44:59;;;;;;;6.78;6.18;;;9.40;77.00;;;;;;5205458;28;20095;-68
2021/05/12 08:47:32;;;;;;;6.70;6.10;;;9.40;76.90;;;;;;5204615;28;20156;-68
2021/05/12 08:50:07;;;;;;;6.80;6.20;;;9.40;77.10;;;;;;5206898;28;20558;-69
2021/05/12 08:52:41;;;;;;;6.20;5.70;;;9.40;77.80;;;;;;5208436;28;20055;-68
2021/05/12 08:55:13;;;;;;;6.20;5.70;;;9.50;77.60;;;;;;5213642;28;20111;-67
2021/05/12 08:57:45;;;;;;;7.05;5.78;;;9.60;77.40;;;;;;5206308;28;20046;-67
2021/05/12 09:00:17;;;;;;;6.38;5.85;;;9.70;77.60;;;;;;5209894;28;20045;-67
2021/05/12 09:02:51;;;;;;;6.43;5.93;;;9.80;77.00;;;;;;5205737;28;20052;-69
2021/05/12 09:05:24;;;;;;;6.68;6.07;;;9.80;76.60;;;;;;5204079;28;20042;-68
2021/05/12 09:07:56;;;;;;;6.55;6.00;;;9.70;74.40;;;;;;5206177;28;20084;-69
2021/05/12 09:10:28;;;;;;;6.28;5.78;;;9.60;75.20;;;;;;5202835;28;20541;-69
2021/05/12 09:13:00;;;;;;;6.90;6.30;;;9.60;74.30;;;;;;5206599;28;20219;-69
2021/05/12 09:15:33;;;;;;;7.10;6.40;;;9.50;76.10;;;;;;5202377;28;20045;-69
2021/05/12 09:18:09;;;;;;;6.70;6.00;;;9.50;75.90;;;;;;5206983;28;20052;-70
2021/05/12 09:20:42;;;;;;;6.82;6.22;;;9.50;75.50;;;;;;5203175;28;20094;-70
2021/05/12 09:23:17;;;;;;;6.90;6.30;;;9.50;76.10;;;;;;5206725;28;20468;-69
2021/05/12 09:25:55;;;;;;;6.32;5.80;;;9.50;75.50;;;;;;5208484;28;20037;-68
2021/05/12 09:28:28;;;;;;;6.50;6.00;;;9.50;75.80;;;;;;5204034;28;20468;-67
2021/05/12 09:31:17;;;;;;;6.43;5.93;;;9.50;75.90;;;;;;5205179;28;20036;-69
2021/05/12 09:33:52;;;;;;;6.70;6.10;;;9.60;76.10;;;;;;5203739;28;20033;-68
2021/05/12 09:36:28;;;;;;;6.38;5.85;;;9.50;76.40;;;;;;5204271;28;20434;-67
2021/05/12 09:39:00;;;;;;;6.35;5.85;;;9.60;77.40;;;;;;5202763;28;20056;-70
2021/05/12 09:41:34;;;;;;;6.57;5.97;;;9.70;76.70;;;;;;5206930;28;20041;-69
2021/05/12 09:44:07;;;;;;;6.70;6.10;;;9.80;77.10;;;;;;5202393;28;20045;-68
2021/05/12 09:46:40;;;;;;;6.70;6.10;;;9.90;76.90;;;;;;5205996;28;20438;-68
2021/05/12 09:49:14;;;;;;;6.75;6.15;;;10.00;77.30;;;;;;5204642;28;20045;-69
2021/05/12 09:51:48;;;;;;;7.00;6.40;;;10.00;75.00;;;;;;5207130;28;20048;-69
2021/05/12 09:54:22;;;;;;;7.05;6.40;;;10.00;76.70;;;;;;5205152;28;20048;-69
2021/05/12 09:56:56;;;;;;;7.10;6.50;;;10.10;76.10;;;;;;5202681;28;20731;-68
2021/05/12 09:59:35;;;;;;;7.10;6.50;;;10.20;76.30;;;;;;5212146;28;20123;-68
2021/05/12 10:02:07;;;;;;;6.97;6.30;;;10.20;76.80;;;;;;5217262;28;20045;-67
2021/05/12 10:04:42;;;;;;;6.78;6.18;;;10.30;77.00;;;;;;5209167;28;20042;-69
2021/05/12 10:07:20;;;;;;;6.93;6.32;;;10.40;77.20;;;;;;5207560;28;20049;-71
2021/05/12 10:09:54;;;;;;;7.20;6.60;;;10.50;76.00;;;;;;5208546;28;20046;-68
2021/05/12 10:12:29;;;;;;;7.35;6.75;;;10.60;75.10;;;;;;5214057;28;20048;-71
2021/05/12 10:15:01;;;;;;;7.13;6.53;;;10.50;75.20;;;;;;5209089;28;20118;-69
2021/05/12 10:17:35;;;;;;;6.68;6.07;;;10.60;76.90;;;;;;5209422;28;20037;-68
2021/05/12 10:20:08;;;;;;;7.22;6.63;;;10.70;74.00;;;;;;5213963;28;20037;-68
2021/05/12 10:22:41;;;;;;;7.07;6.47;;;10.70;76.60;;;;;;5208795;28;20052;-67
2021/05/12 10:25:14;;;;;;;7.10;6.50;;;10.80;76.80;;;;;;5211380;28;20593;-69
2021/05/12 10:27:49;;;;;;;7.85;7.15;;;10.90;76.30;;;;;;5207170;28;20064;-69
2021/05/12 10:30:21;;;;;;;8.15;7.45;;;11.00;78.80;;;;;;5210668;28;20506;-69
2021/05/12 10:32:56;;;;;;;8.20;7.50;;;11.20;79.00;;;;;;5215492;28;20029;-68
2021/05/12 10:35:39;;;;;;;7.38;6.78;;;11.30;77.00;;;;;;5209039;28;20064;-69
2021/05/12 10:38:31;;;;;;;7.18;6.57;;;11.40;73.60;;;;;;5209988;28;20514;-70
2021/05/12 10:41:03;;;;;;;8.68;7.88;;;11.50;76.60;;;;;;5209741;28;20045;-69
2021/05/12 10:43:41;;;;;;;8.40;7.70;;;11.60;75.40;;;;;;5207467;28;20041;-69
2021/05/12 10:46:24;;;;;;;8.27;7.57;;;11.60;71.30;;;;;;5206065;28;20064;-69
2021/05/12 10:48:56;;;;;;;7.88;7.28;;;11.60;71.90;;;;;;5210682;28;20451;-69
2021/05/12 10:51:33;;;;;;;7.40;6.80;;;11.60;72.70;;;;;;5200220;28;20049;-69
2021/05/12 10:54:08;;;;;;;7.40;6.80;;;11.70;71.60;;;;;;5188807;28;20075;-68
2021/05/12 10:56:42;;;;;;;7.10;6.50;;;11.70;71.90;;;;;;5187517;28;20137;-69
2021/05/12 10:59:19;;;;;;;7.30;6.70;;;11.70;71.90;;;;;;5189032;28;20053;-70
2021/05/12 11:01:54;;;;;;;7.10;6.50;;;11.60;72.20;;;;;;5191821;28;20562;-69
2021/05/12 11:04:28;;;;;;;6.90;6.30;;;11.60;73.40;;;;;;5186934;28;20338;-69
2021/05/12 11:07:01;;;;;;;7.25;6.65;;;11.60;73.60;;;;;;5184572;28;20037;-68
2021/05/12 11:09:43;;;;;;;8.32;7.63;;;11.70;74.20;;;;;;5186867;28;20100;-69
2021/05/12 11:12:19;;;;;;;14.13;12.73;;;11.70;72.60;;;;;;5192437;28;20034;-69
2021/05/12 11:14:56;;;;;;;7.60;7.00;;;11.60;72.70;;;;;;5182981;28;20045;-68
2021/05/12 11:17:42;;;;;;;7.93;7.32;;;11.70;71.20;;;;;;5189113;28;20045;-69
2021/05/12 11:20:17;;;;;;;10.07;9.27;;;11.70;73.60;;;;;;5189069;28;20049;-68
2021/05/12 11:22:50;;;;;;;8.13;7.53;;;11.80;74.30;;;;;;5187036;28;20142;-68
2021/05/12 11:25:32;;;;;;;9.82;9.02;;;11.80;74.20;;;;;;5185424;28;20148;-68
2021/05/12 11:33:35;;;;;;;8.30;7.60;;;11.90;70.90;;;;;;5183876;28;20041;-69
2021/05/12 11:38:42;;;;;;;8.10;7.50;;;11.90;70.60;;;;;;5183013;28;20057;-69
2021/05/12 11:41:22;;;;;;;8.20;7.57;;;12.00;70.10;;;;;;5187211;28;20129;-69
2021/05/12 11:44:02;;;;;;;8.20;7.60;;;12.10;70.00;;;;;;5190640;28;20037;-69
2021/05/12 11:46:37;;;;;;;8.18;7.57;;;12.10;71.90;;;;;;5186619;28;20046;-69
2021/05/12 11:49:13;;;;;;;8.20;7.60;;;12.20;72.50;;;;;;5187853;28;20714;-69
2021/05/12 11:51:51;;;;;;;8.10;7.50;;;12.30;71.90;;;;;;5187641;28;20038;-69
2021/05/12 11:54:25;;;;;;;8.10;7.50;;;12.30;71.70;;;;;;5188092;28;20357;-69
2021/05/12 11:57:00;;;;;;;8.52;7.72;;;12.40;71.50;;;;;;5183079;28;20041;-68
2021/05/12 11:59:38;;;;;;;7.88;7.18;;;12.50;69.00;;;;;;5187431;28;20740;-69
2021/05/12 12:02:12;;;;;;;8.43;7.72;;;12.50;72.30;;;;;;5204662;28;20097;-69
2021/05/12 12:07:22;;;;;;;7.60;7.00;;;12.30;68.10;;;;;;5206250;28;20429;-70
2021/05/12 12:10:04;;;;;;;7.78;7.18;;;12.30;68.90;;;;;;5205918;28;20395;-69
2021/05/12 12:12:37;;;;;;;8.07;7.38;;;12.30;69.70;;;;;;5206402;28;20084;-69
2021/05/12 12:15:11;;;;;;;7.72;7.13;;;12.20;70.70;;;;;;5197629;28;20048;-69
2021/05/12 12:17:43;;;;;;;8.15;7.47;;;12.20;71.10;;;;;;5208082;28;20098;-69
2021/05/12 12:20:15;;;;;;;8.23;7.53;;;12.30;72.10;;;;;;5189663;28;20048;-69
2021/05/12 12:22:48;;;;;;;8.30;7.60;;;12.30;72.50;;;;;;5209754;28;20041;-68
2021/05/12 12:25:20;;;;;;;8.50;7.80;;;12.20;71.20;;;;;;5207795;28;20053;-68
2021/05/12 12:27:54;;;;;;;7.88;7.28;;;12.20;71.80;;;;;;5207813;28;20095;-69
2021/05/12 12:30:26;;;;;;;7.82;7.22;;;12.30;73.40;;;;;;5208260;28;20125;-69
2021/05/12 12:32:58;;;;;;;7.60;7.00;;;12.30;74.10;;;;;;5206285;28;20041;-70
2021/05/12 12:35:30;;;;;;;7.75;7.15;;;12.40;74.10;;;;;;5205842;28;20043;-68
2021/05/12 12:38:17;;;;;;;7.88;7.28;;;12.50;74.60;;;;;;5204641;28;20048;-69
2021/05/12 12:40:49;;;;;;;8.02;7.43;;;12.50;72.90;;;;;;5204888;28;20049;-68
2021/05/12 12:43:20;;;;;;;8.25;7.55;;;12.60;72.00;;;;;;5207374;28;20053;-67
2021/05/12 12:45:52;;;;;;;8.02;7.43;;;12.60;70.30;;;;;;5203465;28;20118;-69
2021/05/12 12:48:24;;;;;;;7.85;7.25;;;12.50;72.30;;;;;;5188148;28;20049;-68
2021/05/12 12:50:57;;;;;;;8.60;7.90;;;12.50;72.60;;;;;;5203624;28;20372;-68
2021/05/12 12:53:29;;;;;;;8.68;7.97;;;12.50;72.50;;;;;;5206861;28;20048;-68
2021/05/12 12:56:10;;;;;;;8.80;8.10;;;12.50;72.40;;;;;;5207299;28;20106;-68
2021/05/12 12:59:02;;;;;;;8.70;8.00;;;12.40;72.80;;;;;;5205643;28;20044;-67
2021/05/12 13:01:35;;;;;;;9.73;8.82;;;12.40;71.80;;;;;;5206067;28;20099;-67
2021/05/12 13:04:21;;;;;;;9.70;8.80;;;12.40;73.00;;;;;;5206280;28;20037;-67
2021/05/12 13:07:05;;;;;;;8.85;8.15;;;12.40;72.80;;;;;;5205727;28;21003;-67
2021/05/12 13:09:37;;;;;;;8.60;7.90;;;12.40;72.80;;;;;;5206625;28;20685;-69
2021/05/12 13:12:09;;;;;;;8.40;7.70;;;12.40;73.10;;;;;;5210836;28;20061;-68
2021/05/12 13:14:41;;;;;;;8.38;7.68;;;12.40;71.80;;;;;;5206892;28;20150;-67
2021/05/12 13:17:17;;;;;;;8.70;8.00;;;12.30;72.40;;;;;;5204730;28;20510;-68
2021/05/12 13:19:53;;;;;;;8.35;7.55;;;12.30;73.10;;;;;;5206602;28;20045;-68
2021/05/12 13:22:28;;;;;;;8.50;7.80;;;12.20;72.80;;;;;;5208915;28;20442;-67
2021/05/12 13:25:07;;;;;;;8.55;7.85;;;12.20;72.90;;;;;;5205348;28;20037;-67
2021/05/12 13:27:39;;;;;;;7.97;7.38;;;12.00;72.90;;;;;;5207536;28;20804;-68
2021/05/12 13:30:11;;;;;;;8.45;7.75;;;12.00;71.90;;;;;;5205418;28;20036;-67
2021/05/12 13:32:44;;;;;;;8.43;7.72;;;11.90;73.30;;;;;;5218958;28;20132;-68
2021/05/12 13:35:17;;;;;;;8.68;7.97;;;11.90;74.00;;;;;;5209827;28;20076;-69
2021/05/12 13:37:50;;;;;;;8.50;7.80;;;11.90;73.10;;;;;;5191224;28;20041;-68
2021/05/12 13:40:22;;;;;;;8.52;7.82;;;11.90;74.60;;;;;;5193047;28;20500;-67
2021/05/12 13:42:54;;;;;;;8.50;7.80;;;11.90;73.40;;;;;;5188463;28;20045;-67
2021/05/12 13:45:26;;;;;;;8.50;7.80;;;11.90;73.00;;;;;;5190998;28;20053;-67
2021/05/12 13:47:59;;;;;;;8.60;7.90;;;11.90;73.10;;;;;;5187166;28;20072;-68